Portada
METAR-TAF:

METAR-TAF

Aeroports :

Blytheville, Arkansas, Estats Units d'Amèrica

latitud: 35-58N, longitud: 089-57W, altitud: 78 m

Observació

L'informe es va fer fa 18 hores i 28 minuts, a les 18:56 UTC
Vent 8 kt del Nord amb ràfegues de 17 kt
Temperatura 29°C
Humitat 43%
Pressió 1017 hPa
Visibilitat: 16.1 km
Núvols disperses a una alçada de 5500 ft

METAR: KBYH 291856Z 01008G17KT 10SM SCT055 29/15 A3004 RMK LAST

Hora: 08:24 (13:24 UTC)


TAF: manca

Observacions i pronòstics meteorològics de més de 4000 aeroports (METAR i TAF).

Les estacions disponibles són els punts grocs i vermells al mapa.

Posi el ratolí al punt desitjat per veure el nom de l'estació.

Feu clic per veure les observacions i els pronòstics meteorològics.

Per canviar el mapa: feu clic els botons verds amb una creu de color negre per apropar; al botó verd amb un guió per allunyar la imatge; o en les fletxes verdes per a mapes adjacents.


METAR-TAF: